sensor_id;sensor_type;location;lat;lon;timestamp;P1;durP1;ratioP1;P2;durP2;ratioP2
76610;SDS011;65503;48.534;9.062;2023-05-16T00:00:46;17.02;;;10.70;;
76610;SDS011;65503;48.534;9.062;2023-05-16T00:03:14;18.33;;;10.25;;
76610;SDS011;65503;48.534;9.062;2023-05-16T00:05:40;15.95;;;9.75;;
76610;SDS011;65503;48.534;9.062;2023-05-16T00:08:07;18.48;;;11.63;;
76610;SDS011;65503;48.534;9.062;2023-05-16T00:10:33;20.38;;;11.85;;
76610;SDS011;65503;48.534;9.062;2023-05-16T00:13:00;19.90;;;11.38;;
76610;SDS011;65503;48.534;9.062;2023-05-16T00:15:27;25.33;;;12.68;;
76610;SDS011;65503;48.534;9.062;2023-05-16T00:17:55;21.98;;;12.52;;
76610;SDS011;65503;48.534;9.062;2023-05-16T00:20:25;21.48;;;12.40;;
76610;SDS011;65503;48.534;9.062;2023-05-16T00:22:53;24.45;;;13.43;;
76610;SDS011;65503;48.534;9.062;2023-05-16T00:25:20;27.02;;;13.48;;
76610;SDS011;65503;48.534;9.062;2023-05-16T00:27:47;22.70;;;12.70;;
76610;SDS011;65503;48.534;9.062;2023-05-16T00:30:13;21.42;;;11.93;;
76610;SDS011;65503;48.534;9.062;2023-05-16T00:32:40;21.52;;;12.30;;
76610;SDS011;65503;48.534;9.062;2023-05-16T00:35:06;20.80;;;11.68;;
76610;SDS011;65503;48.534;9.062;2023-05-16T00:37:36;17.70;;;11.55;;
76610;SDS011;65503;48.534;9.062;2023-05-16T00:40:03;19.33;;;11.18;;
76610;SDS011;65503;48.534;9.062;2023-05-16T00:42:30;17.80;;;10.68;;
76610;SDS011;65503;48.534;9.062;2023-05-16T00:44:57;16.42;;;10.13;;
76610;SDS011;65503;48.534;9.062;2023-05-16T00:47:23;16.65;;;10.23;;
76610;SDS011;65503;48.534;9.062;2023-05-16T00:49:50;17.92;;;11.00;;
76610;SDS011;65503;48.534;9.062;2023-05-16T00:52:17;20.52;;;12.20;;
76610;SDS011;65503;48.534;9.062;2023-05-16T00:54:43;21.30;;;12.55;;
76610;SDS011;65503;48.534;9.062;2023-05-16T00:57:10;29.85;;;14.23;;
76610;SDS011;65503;48.534;9.062;2023-05-16T00:59:36;24.00;;;12.40;;
76610;SDS011;65503;48.534;9.062;2023-05-16T01:02:03;28.40;;;14.07;;
76610;SDS011;65503;48.534;9.062;2023-05-16T01:04:30;21.70;;;12.27;;
76610;SDS011;65503;48.534;9.062;2023-05-16T01:06:57;18.65;;;11.82;;
76610;SDS011;65503;48.534;9.062;2023-05-16T01:09:24;20.75;;;12.32;;
76610;SDS011;65503;48.534;9.062;2023-05-16T01:11:52;20.95;;;10.65;;
76610;SDS011;65503;48.534;9.062;2023-05-16T01:17:10;21.85;;;11.50;;
76610;SDS011;65503;48.534;9.062;2023-05-16T01:25:37;19.77;;;11.07;;
76610;SDS011;65503;48.534;9.062;2023-05-16T01:28:17;16.95;;;10.73;;
76610;SDS011;65503;48.534;9.062;2023-05-16T01:30:45;20.15;;;11.57;;
76610;SDS011;65503;48.534;9.062;2023-05-16T01:33:11;20.38;;;10.77;;
76610;SDS011;65503;48.534;9.062;2023-05-16T01:36:00;23.83;;;12.75;;
76610;SDS011;65503;48.534;9.062;2023-05-16T01:38:35;21.33;;;12.32;;
76610;SDS011;65503;48.534;9.062;2023-05-16T01:43:47;18.33;;;10.63;;
76610;SDS011;65503;48.534;9.062;2023-05-16T01:46:20;20.52;;;10.93;;
76610;SDS011;65503;48.534;9.062;2023-05-16T01:48:52;21.80;;;11.45;;
76610;SDS011;65503;48.534;9.062;2023-05-16T01:51:23;19.42;;;11.27;;
76610;SDS011;65503;48.534;9.062;2023-05-16T01:53:57;21.10;;;11.63;;
76610;SDS011;65503;48.534;9.062;2023-05-16T01:56:26;19.75;;;10.60;;
76610;SDS011;65503;48.534;9.062;2023-05-16T01:58:54;23.55;;;12.05;;
76610;SDS011;65503;48.534;9.062;2023-05-16T02:01:24;24.80;;;12.07;;
76610;SDS011;65503;48.534;9.062;2023-05-16T02:03:50;21.08;;;12.18;;
76610;SDS011;65503;48.534;9.062;2023-05-16T02:06:17;19.63;;;10.05;;
76610;SDS011;65503;48.534;9.062;2023-05-16T02:08:44;19.50;;;10.52;;
76610;SDS011;65503;48.534;9.062;2023-05-16T02:11:10;16.98;;;10.43;;
76610;SDS011;65503;48.534;9.062;2023-05-16T02:13:37;20.58;;;11.55;;
76610;SDS011;65503;48.534;9.062;2023-05-16T02:16:03;20.63;;;10.85;;
76610;SDS011;65503;48.534;9.062;2023-05-16T02:18:30;17.27;;;10.13;;
76610;SDS011;65503;48.534;9.062;2023-05-16T02:20:57;19.83;;;10.80;;
76610;SDS011;65503;48.534;9.062;2023-05-16T02:23:23;17.27;;;9.63;;
76610;SDS011;65503;48.534;9.062;2023-05-16T02:25:50;18.08;;;10.80;;
76610;SDS011;65503;48.534;9.062;2023-05-16T02:28:16;22.50;;;11.32;;
76610;SDS011;65503;48.534;9.062;2023-05-16T02:30:42;17.90;;;10.73;;
76610;SDS011;65503;48.534;9.062;2023-05-16T02:33:09;21.02;;;11.13;;
76610;SDS011;65503;48.534;9.062;2023-05-16T02:35:36;24.83;;;12.05;;
76610;SDS011;65503;48.534;9.062;2023-05-16T02:38:03;22.90;;;12.23;;
76610;SDS011;65503;48.534;9.062;2023-05-16T02:40:29;26.15;;;12.88;;
76610;SDS011;65503;48.534;9.062;2023-05-16T02:42:56;23.60;;;12.25;;
76610;SDS011;65503;48.534;9.062;2023-05-16T02:45:22;26.27;;;12.35;;
76610;SDS011;65503;48.534;9.062;2023-05-16T02:47:49;19.60;;;10.43;;
76610;SDS011;65503;48.534;9.062;2023-05-16T02:50:16;19.75;;;10.82;;
76610;SDS011;65503;48.534;9.062;2023-05-16T02:52:42;16.48;;;10.10;;
76610;SDS011;65503;48.534;9.062;2023-05-16T02:55:09;18.27;;;9.65;;
76610;SDS011;65503;48.534;9.062;2023-05-16T02:57:40;32.22;;;14.85;;
76610;SDS011;65503;48.534;9.062;2023-05-16T03:00:07;43.25;;;17.10;;
76610;SDS011;65503;48.534;9.062;2023-05-16T03:02:36;36.22;;;15.10;;
76610;SDS011;65503;48.534;9.062;2023-05-16T03:05:03;35.25;;;15.27;;
76610;SDS011;65503;48.534;9.062;2023-05-16T03:07:31;46.72;;;18.13;;
76610;SDS011;65503;48.534;9.062;2023-05-16T03:09:58;37.85;;;15.38;;
76610;SDS011;65503;48.534;9.062;2023-05-16T03:12:24;42.97;;;17.75;;
76610;SDS011;65503;48.534;9.062;2023-05-16T03:14:51;37.97;;;16.02;;
76610;SDS011;65503;48.534;9.062;2023-05-16T03:17:17;34.85;;;15.13;;
76610;SDS011;65503;48.534;9.062;2023-05-16T03:19:44;37.75;;;14.13;;
76610;SDS011;65503;48.534;9.062;2023-05-16T03:22:11;27.52;;;13.23;;
76610;SDS011;65503;48.534;9.062;2023-05-16T03:24:37;25.63;;;12.57;;
76610;SDS011;65503;48.534;9.062;2023-05-16T03:27:04;23.70;;;12.82;;
76610;SDS011;65503;48.534;9.062;2023-05-16T03:29:30;21.30;;;11.57;;
76610;SDS011;65503;48.534;9.062;2023-05-16T03:31:57;22.40;;;11.10;;
76610;SDS011;65503;48.534;9.062;2023-05-16T03:34:23;18.05;;;10.20;;
76610;SDS011;65503;48.534;9.062;2023-05-16T03:36:50;25.33;;;12.18;;
76610;SDS011;65503;48.534;9.062;2023-05-16T03:39:17;27.30;;;12.85;;
76610;SDS011;65503;48.534;9.062;2023-05-16T03:41:43;28.30;;;12.27;;
76610;SDS011;65503;48.534;9.062;2023-05-16T03:44:10;35.28;;;13.38;;
76610;SDS011;65503;48.534;9.062;2023-05-16T03:46:36;31.88;;;13.60;;
76610;SDS011;65503;48.534;9.062;2023-05-16T03:49:03;52.72;;;18.45;;
76610;SDS011;65503;48.534;9.062;2023-05-16T03:51:29;63.30;;;21.85;;
76610;SDS011;65503;48.534;9.062;2023-05-16T03:53:56;73.13;;;24.55;;
76610;SDS011;65503;48.534;9.062;2023-05-16T03:56:23;85.45;;;25.08;;
76610;SDS011;65503;48.534;9.062;2023-05-16T03:58:49;107.68;;;30.65;;
76610;SDS011;65503;48.534;9.062;2023-05-16T04:01:16;94.00;;;29.08;;
76610;SDS011;65503;48.534;9.062;2023-05-16T04:03:42;86.57;;;25.52;;
76610;SDS011;65503;48.534;9.062;2023-05-16T04:06:09;61.38;;;20.42;;
76610;SDS011;65503;48.534;9.062;2023-05-16T04:08:35;43.90;;;16.70;;
76610;SDS011;65503;48.534;9.062;2023-05-16T04:11:04;45.42;;;16.77;;
76610;SDS011;65503;48.534;9.062;2023-05-16T04:13:31;33.70;;;14.07;;
76610;SDS011;65503;48.534;9.062;2023-05-16T04:15:57;35.88;;;13.15;;
76610;SDS011;65503;48.534;9.062;2023-05-16T04:18:24;31.25;;;14.57;;
76610;SDS011;65503;48.534;9.062;2023-05-16T04:20:50;31.60;;;14.15;;
76610;SDS011;65503;48.534;9.062;2023-05-16T04:23:17;34.42;;;12.90;;
76610;SDS011;65503;48.534;9.062;2023-05-16T04:25:43;32.30;;;14.18;;
76610;SDS011;65503;48.534;9.062;2023-05-16T04:28:10;45.42;;;17.55;;
76610;SDS011;65503;48.534;9.062;2023-05-16T04:30:37;40.15;;;15.52;;
76610;SDS011;65503;48.534;9.062;2023-05-16T04:33:03;43.83;;;16.63;;
76610;SDS011;65503;48.534;9.062;2023-05-16T04:35:30;44.20;;;18.42;;
76610;SDS011;65503;48.534;9.062;2023-05-16T04:37:56;52.45;;;18.73;;
76610;SDS011;65503;48.534;9.062;2023-05-16T04:40:23;50.28;;;19.27;;
76610;SDS011;65503;48.534;9.062;2023-05-16T04:42:50;82.13;;;29.88;;
76610;SDS011;65503;48.534;9.062;2023-05-16T04:45:18;73.93;;;28.17;;
76610;SDS011;65503;48.534;9.062;2023-05-16T04:47:45;75.85;;;30.60;;
76610;SDS011;65503;48.534;9.062;2023-05-16T04:50:11;70.22;;;25.95;;
76610;SDS011;65503;48.534;9.062;2023-05-16T04:52:38;64.38;;;27.48;;
76610;SDS011;65503;48.534;9.062;2023-05-16T04:55:04;81.22;;;31.58;;
76610;SDS011;65503;48.534;9.062;2023-05-16T04:57:31;73.40;;;29.63;;
76610;SDS011;65503;48.534;9.062;2023-05-16T04:59:58;62.17;;;27.02;;
76610;SDS011;65503;48.534;9.062;2023-05-16T05:02:24;61.75;;;26.02;;
76610;SDS011;65503;48.534;9.062;2023-05-16T05:04:52;63.13;;;28.02;;
76610;SDS011;65503;48.534;9.062;2023-05-16T05:07:19;53.00;;;26.33;;
76610;SDS011;65503;48.534;9.062;2023-05-16T05:09:45;56.03;;;25.55;;
76610;SDS011;65503;48.534;9.062;2023-05-16T05:12:12;71.25;;;31.33;;
76610;SDS011;65503;48.534;9.062;2023-05-16T05:14:39;59.75;;;27.77;;
76610;SDS011;65503;48.534;9.062;2023-05-16T05:17:05;50.47;;;24.17;;
76610;SDS011;65503;48.534;9.062;2023-05-16T05:19:32;48.20;;;22.63;;
76610;SDS011;65503;48.534;9.062;2023-05-16T05:21:58;41.53;;;20.38;;
76610;SDS011;65503;48.534;9.062;2023-05-16T05:24:25;46.47;;;23.10;;
76610;SDS011;65503;48.534;9.062;2023-05-16T05:26:51;51.42;;;22.83;;
76610;SDS011;65503;48.534;9.062;2023-05-16T05:29:18;57.70;;;26.10;;
76610;SDS011;65503;48.534;9.062;2023-05-16T05:31:45;62.85;;;27.02;;
76610;SDS011;65503;48.534;9.062;2023-05-16T05:34:11;63.60;;;27.67;;
76610;SDS011;65503;48.534;9.062;2023-05-16T05:36:38;49.15;;;23.75;;
76610;SDS011;65503;48.534;9.062;2023-05-16T05:39:05;53.03;;;26.20;;
76610;SDS011;65503;48.534;9.062;2023-05-16T05:41:32;56.70;;;26.48;;
76610;SDS011;65503;48.534;9.062;2023-05-16T05:43:58;50.90;;;25.13;;
76610;SDS011;65503;48.534;9.062;2023-05-16T05:46:24;49.50;;;25.02;;
76610;SDS011;65503;48.534;9.062;2023-05-16T05:48:51;53.90;;;24.90;;
76610;SDS011;65503;48.534;9.062;2023-05-16T05:51:18;59.42;;;27.02;;
76610;SDS011;65503;48.534;9.062;2023-05-16T05:53:44;50.38;;;24.80;;
76610;SDS011;65503;48.534;9.062;2023-05-16T05:56:11;48.80;;;24.45;;
76610;SDS011;65503;48.534;9.062;2023-05-16T05:58:37;42.55;;;23.02;;
76610;SDS011;65503;48.534;9.062;2023-05-16T06:01:04;44.28;;;21.95;;
76610;SDS011;65503;48.534;9.062;2023-05-16T06:03:31;49.70;;;23.65;;
76610;SDS011;65503;48.534;9.062;2023-05-16T06:05:57;48.83;;;25.20;;
76610;SDS011;65503;48.534;9.062;2023-05-16T06:08:24;49.10;;;24.83;;
76610;SDS011;65503;48.534;9.062;2023-05-16T06:10:50;48.08;;;25.10;;
76610;SDS011;65503;48.534;9.062;2023-05-16T06:13:17;52.00;;;25.75;;
76610;SDS011;65503;48.534;9.062;2023-05-16T06:15:48;45.53;;;24.65;;
76610;SDS011;65503;48.534;9.062;2023-05-16T06:18:18;42.60;;;23.38;;
76610;SDS011;65503;48.534;9.062;2023-05-16T06:20:45;50.70;;;26.15;;
76610;SDS011;65503;48.534;9.062;2023-05-16T06:23:12;43.47;;;23.27;;
76610;SDS011;65503;48.534;9.062;2023-05-16T06:25:38;47.47;;;25.02;;
76610;SDS011;65503;48.534;9.062;2023-05-16T06:28:05;42.45;;;22.30;;
76610;SDS011;65503;48.534;9.062;2023-05-16T06:30:31;38.53;;;21.25;;
76610;SDS011;65503;48.534;9.062;2023-05-16T06:32:58;41.00;;;23.05;;
76610;SDS011;65503;48.534;9.062;2023-05-16T06:35:24;46.25;;;24.58;;
76610;SDS011;65503;48.534;9.062;2023-05-16T06:37:51;47.25;;;24.13;;
76610;SDS011;65503;48.534;9.062;2023-05-16T06:40:18;43.85;;;22.92;;
76610;SDS011;65503;48.534;9.062;2023-05-16T06:42:44;45.17;;;24.60;;
76610;SDS011;65503;48.534;9.062;2023-05-16T06:45:11;37.08;;;21.27;;
76610;SDS011;65503;48.534;9.062;2023-05-16T06:47:37;44.20;;;23.88;;
76610;SDS011;65503;48.534;9.062;2023-05-16T06:50:05;44.88;;;24.02;;
76610;SDS011;65503;48.534;9.062;2023-05-16T06:52:32;38.08;;;22.33;;
76610;SDS011;65503;48.534;9.062;2023-05-16T06:54:59;45.72;;;22.77;;
76610;SDS011;65503;48.534;9.062;2023-05-16T06:57:28;45.40;;;23.58;;
76610;SDS011;65503;48.534;9.062;2023-05-16T06:59:55;42.22;;;21.65;;
76610;SDS011;65503;48.534;9.062;2023-05-16T07:02:22;40.92;;;21.60;;
76610;SDS011;65503;48.534;9.062;2023-05-16T07:04:48;36.88;;;20.85;;
76610;SDS011;65503;48.534;9.062;2023-05-16T07:07:15;37.05;;;20.15;;
76610;SDS011;65503;48.534;9.062;2023-05-16T07:09:41;36.33;;;20.05;;
76610;SDS011;65503;48.534;9.062;2023-05-16T07:12:08;35.45;;;17.95;;
76610;SDS011;65503;48.534;9.062;2023-05-16T07:14:35;31.75;;;17.83;;
76610;SDS011;65503;48.534;9.062;2023-05-16T07:17:01;27.25;;;17.33;;
76610;SDS011;65503;48.534;9.062;2023-05-16T07:19:29;31.05;;;16.95;;
76610;SDS011;65503;48.534;9.062;2023-05-16T07:21:55;33.88;;;18.50;;
76610;SDS011;65503;48.534;9.062;2023-05-16T07:24:22;30.58;;;17.13;;
76610;SDS011;65503;48.534;9.062;2023-05-16T07:26:48;29.55;;;16.83;;
76610;SDS011;65503;48.534;9.062;2023-05-16T07:29:15;28.23;;;16.17;;
76610;SDS011;65503;48.534;9.062;2023-05-16T07:31:41;29.27;;;17.00;;
76610;SDS011;65503;48.534;9.062;2023-05-16T07:34:09;31.00;;;16.83;;
76610;SDS011;65503;48.534;9.062;2023-05-16T07:36:36;28.02;;;15.82;;
76610;SDS011;65503;48.534;9.062;2023-05-16T07:39:02;28.38;;;15.98;;
76610;SDS011;65503;48.534;9.062;2023-05-16T07:41:29;27.35;;;16.25;;
76610;SDS011;65503;48.534;9.062;2023-05-16T07:43:56;26.98;;;16.15;;
76610;SDS011;65503;48.534;9.062;2023-05-16T07:46:23;29.88;;;16.73;;
76610;SDS011;65503;48.534;9.062;2023-05-16T07:48:50;30.38;;;14.80;;
76610;SDS011;65503;48.534;9.062;2023-05-16T07:51:16;24.77;;;15.02;;
76610;SDS011;65503;48.534;9.062;2023-05-16T07:53:43;24.80;;;15.13;;
76610;SDS011;65503;48.534;9.062;2023-05-16T07:56:09;27.48;;;15.98;;
76610;SDS011;65503;48.534;9.062;2023-05-16T07:58:36;27.92;;;15.57;;
76610;SDS011;65503;48.534;9.062;2023-05-16T08:01:03;24.67;;;14.90;;
76610;SDS011;65503;48.534;9.062;2023-05-16T08:03:29;22.73;;;14.15;;
76610;SDS011;65503;48.534;9.062;2023-05-16T08:05:56;23.95;;;13.85;;
76610;SDS011;65503;48.534;9.062;2023-05-16T08:08:23;23.40;;;13.77;;
76610;SDS011;65503;48.534;9.062;2023-05-16T08:10:49;25.77;;;15.02;;
76610;SDS011;65503;48.534;9.062;2023-05-16T08:13:16;23.73;;;14.35;;
76610;SDS011;65503;48.534;9.062;2023-05-16T08:15:43;24.20;;;13.75;;
76610;SDS011;65503;48.534;9.062;2023-05-16T08:18:13;20.55;;;13.07;;
76610;SDS011;65503;48.534;9.062;2023-05-16T08:20:40;22.45;;;13.50;;
76610;SDS011;65503;48.534;9.062;2023-05-16T08:23:07;22.00;;;13.05;;
76610;SDS011;65503;48.534;9.062;2023-05-16T08:25:34;19.88;;;11.48;;
76610;SDS011;65503;48.534;9.062;2023-05-16T08:28:01;20.00;;;11.55;;
76610;SDS011;65503;48.534;9.062;2023-05-16T08:30:28;18.45;;;10.85;;
76610;SDS011;65503;48.534;9.062;2023-05-16T08:32:55;16.23;;;10.05;;
76610;SDS011;65503;48.534;9.062;2023-05-16T08:35:21;15.18;;;9.63;;
76610;SDS011;65503;48.534;9.062;2023-05-16T08:37:48;17.88;;;10.45;;
76610;SDS011;65503;48.534;9.062;2023-05-16T08:40:14;21.00;;;11.77;;
76610;SDS011;65503;48.534;9.062;2023-05-16T08:42:41;17.70;;;11.10;;
76610;SDS011;65503;48.534;9.062;2023-05-16T08:45:10;17.77;;;10.82;;
76610;SDS011;65503;48.534;9.062;2023-05-16T08:47:37;18.00;;;10.65;;
76610;SDS011;65503;48.534;9.062;2023-05-16T08:50:10;17.30;;;10.00;;
76610;SDS011;65503;48.534;9.062;2023-05-16T08:52:37;18.77;;;10.70;;
76610;SDS011;65503;48.534;9.062;2023-05-16T08:55:05;17.02;;;10.40;;
76610;SDS011;65503;48.534;9.062;2023-05-16T08:57:50;16.67;;;10.05;;
76610;SDS011;65503;48.534;9.062;2023-05-16T09:00:18;19.20;;;11.30;;
76610;SDS011;65503;48.534;9.062;2023-05-16T09:02:45;17.75;;;10.30;;
76610;SDS011;65503;48.534;9.062;2023-05-16T09:05:13;18.13;;;10.93;;
76610;SDS011;65503;48.534;9.062;2023-05-16T09:07:41;18.48;;;11.80;;
76610;SDS011;65503;48.534;9.062;2023-05-16T09:10:08;18.90;;;10.82;;
76610;SDS011;65503;48.534;9.062;2023-05-16T09:12:37;18.60;;;11.50;;
76610;SDS011;65503;48.534;9.062;2023-05-16T09:15:05;18.20;;;10.85;;
76610;SDS011;65503;48.534;9.062;2023-05-16T09:17:34;20.15;;;11.88;;
76610;SDS011;65503;48.534;9.062;2023-05-16T09:22:39;19.95;;;11.90;;
76610;SDS011;65503;48.534;9.062;2023-05-16T09:25:18;22.90;;;12.48;;
76610;SDS011;65503;48.534;9.062;2023-05-16T09:27:57;21.75;;;13.20;;
76610;SDS011;65503;48.534;9.062;2023-05-16T09:30:26;23.38;;;12.15;;
76610;SDS011;65503;48.534;9.062;2023-05-16T09:32:55;21.83;;;12.75;;
76610;SDS011;65503;48.534;9.062;2023-05-16T09:35:22;22.30;;;13.50;;
76610;SDS011;65503;48.534;9.062;2023-05-16T09:38:15;19.50;;;12.15;;
76610;SDS011;65503;48.534;9.062;2023-05-16T09:40:43;20.10;;;12.45;;
76610;SDS011;65503;48.534;9.062;2023-05-16T09:43:13;23.17;;;13.25;;
76610;SDS011;65503;48.534;9.062;2023-05-16T09:45:45;19.35;;;11.48;;
76610;SDS011;65503;48.534;9.062;2023-05-16T09:48:14;20.42;;;12.70;;
76610;SDS011;65503;48.534;9.062;2023-05-16T09:50:46;22.13;;;13.43;;
76610;SDS011;65503;48.534;9.062;2023-05-16T09:53:28;19.98;;;12.32;;
76610;SDS011;65503;48.534;9.062;2023-05-16T09:55:59;23.75;;;13.18;;
76610;SDS011;65503;48.534;9.062;2023-05-16T09:58:30;20.45;;;11.90;;
76610;SDS011;65503;48.534;9.062;2023-05-16T10:00:58;21.38;;;11.93;;
76610;SDS011;65503;48.534;9.062;2023-05-16T10:03:25;22.17;;;13.18;;
76610;SDS011;65503;48.534;9.062;2023-05-16T10:08:19;21.13;;;13.05;;
76610;SDS011;65503;48.534;9.062;2023-05-16T10:10:51;21.80;;;13.30;;
76610;SDS011;65503;48.534;9.062;2023-05-16T10:13:23;21.27;;;12.45;;
76610;SDS011;65503;48.534;9.062;2023-05-16T10:15:54;18.77;;;11.55;;
76610;SDS011;65503;48.534;9.062;2023-05-16T10:18:23;18.88;;;11.95;;
76610;SDS011;65503;48.534;9.062;2023-05-16T10:20:56;25.17;;;13.85;;
76610;SDS011;65503;48.534;9.062;2023-05-16T10:23:26;21.50;;;12.35;;
76610;SDS011;65503;48.534;9.062;2023-05-16T10:25:53;23.52;;;13.07;;
76610;SDS011;65503;48.534;9.062;2023-05-16T10:28:22;20.30;;;12.52;;
76610;SDS011;65503;48.534;9.062;2023-05-16T10:30:50;19.80;;;11.85;;
76610;SDS011;65503;48.534;9.062;2023-05-16T10:33:18;17.60;;;11.10;;
76610;SDS011;65503;48.534;9.062;2023-05-16T10:35:45;18.75;;;11.63;;
76610;SDS011;65503;48.534;9.062;2023-05-16T10:38:15;21.95;;;11.88;;
76610;SDS011;65503;48.534;9.062;2023-05-16T10:40:45;20.10;;;11.38;;
76610;SDS011;65503;48.534;9.062;2023-05-16T10:43:21;18.25;;;11.13;;
76610;SDS011;65503;48.534;9.062;2023-05-16T10:45:55;19.00;;;11.32;;
76610;SDS011;65503;48.534;9.062;2023-05-16T10:48:29;20.52;;;12.77;;
76610;SDS011;65503;48.534;9.062;2023-05-16T10:51:01;20.67;;;12.73;;
76610;SDS011;65503;48.534;9.062;2023-05-16T10:53:29;25.90;;;13.40;;
76610;SDS011;65503;48.534;9.062;2023-05-16T11:06:25;24.35;;;13.25;;
76610;SDS011;65503;48.534;9.062;2023-05-16T11:11:45;23.15;;;14.52;;
76610;SDS011;65503;48.534;9.062;2023-05-16T11:14:21;22.38;;;12.85;;
76610;SDS011;65503;48.534;9.062;2023-05-16T11:17:02;24.02;;;14.02;;
76610;SDS011;65503;48.534;9.062;2023-05-16T11:19:33;23.02;;;13.00;;
76610;SDS011;65503;48.534;9.062;2023-05-16T11:22:05;27.25;;;15.90;;
76610;SDS011;65503;48.534;9.062;2023-05-16T11:24:35;27.95;;;15.00;;
76610;SDS011;65503;48.534;9.062;2023-05-16T11:27:04;27.33;;;14.40;;
76610;SDS011;65503;48.534;9.062;2023-05-16T11:29:32;25.08;;;14.18;;
76610;SDS011;65503;48.534;9.062;2023-05-16T11:32:01;28.00;;;16.33;;
76610;SDS011;65503;48.534;9.062;2023-05-16T11:34:31;28.98;;;15.18;;
76610;SDS011;65503;48.534;9.062;2023-05-16T11:37:03;25.35;;;14.15;;
76610;SDS011;65503;48.534;9.062;2023-05-16T11:39:30;29.85;;;15.27;;
76610;SDS011;65503;48.534;9.062;2023-05-16T11:41:57;30.40;;;16.17;;
76610;SDS011;65503;48.534;9.062;2023-05-16T11:44:24;31.48;;;16.02;;
76610;SDS011;65503;48.534;9.062;2023-05-16T11:46:51;31.08;;;16.15;;
76610;SDS011;65503;48.534;9.062;2023-05-16T11:49:18;31.73;;;16.52;;
76610;SDS011;65503;48.534;9.062;2023-05-16T11:51:44;34.25;;;16.35;;
76610;SDS011;65503;48.534;9.062;2023-05-16T11:54:12;26.77;;;14.75;;
76610;SDS011;65503;48.534;9.062;2023-05-16T11:56:38;30.95;;;14.70;;
76610;SDS011;65503;48.534;9.062;2023-05-16T11:59:09;28.05;;;13.68;;
76610;SDS011;65503;48.534;9.062;2023-05-16T12:01:38;28.58;;;14.63;;
76610;SDS011;65503;48.534;9.062;2023-05-16T12:04:11;28.88;;;13.68;;
76610;SDS011;65503;48.534;9.062;2023-05-16T12:06:40;26.75;;;13.00;;
76610;SDS011;65503;48.534;9.062;2023-05-16T12:09:11;27.75;;;13.38;;
76610;SDS011;65503;48.534;9.062;2023-05-16T12:11:42;26.35;;;12.25;;
76610;SDS011;65503;48.534;9.062;2023-05-16T12:14:10;18.55;;;10.27;;
76610;SDS011;65503;48.534;9.062;2023-05-16T12:16:38;20.27;;;9.70;;
76610;SDS011;65503;48.534;9.062;2023-05-16T12:19:09;20.52;;;9.82;;
76610;SDS011;65503;48.534;9.062;2023-05-16T12:21:37;20.30;;;9.48;;
76610;SDS011;65503;48.534;9.062;2023-05-16T12:24:04;18.25;;;9.57;;
76610;SDS011;65503;48.534;9.062;2023-05-16T12:26:34;18.73;;;9.88;;
76610;SDS011;65503;48.534;9.062;2023-05-16T12:29:01;16.48;;;9.38;;
76610;SDS011;65503;48.534;9.062;2023-05-16T12:31:33;18.05;;;9.20;;
76610;SDS011;65503;48.534;9.062;2023-05-16T12:34:02;15.95;;;9.02;;
76610;SDS011;65503;48.534;9.062;2023-05-16T12:36:32;16.38;;;9.05;;
76610;SDS011;65503;48.534;9.062;2023-05-16T12:39:00;17.20;;;9.32;;
76610;SDS011;65503;48.534;9.062;2023-05-16T12:41:29;17.70;;;9.43;;
76610;SDS011;65503;48.534;9.062;2023-05-16T12:44:05;15.50;;;7.97;;
76610;SDS011;65503;48.534;9.062;2023-05-16T12:46:40;14.10;;;8.15;;
76610;SDS011;65503;48.534;9.062;2023-05-16T12:49:20;17.85;;;9.02;;
76610;SDS011;65503;48.534;9.062;2023-05-16T12:51:50;15.80;;;7.95;;
76610;SDS011;65503;48.534;9.062;2023-05-16T12:54:18;14.60;;;8.30;;
76610;SDS011;65503;48.534;9.062;2023-05-16T12:59:12;14.93;;;8.32;;
76610;SDS011;65503;48.534;9.062;2023-05-16T13:01:39;20.63;;;8.82;;
76610;SDS011;65503;48.534;9.062;2023-05-16T13:04:07;16.23;;;8.13;;
76610;SDS011;65503;48.534;9.062;2023-05-16T13:06:34;15.40;;;9.07;;
76610;SDS011;65503;48.534;9.062;2023-05-16T13:09:20;15.73;;;8.25;;
76610;SDS011;65503;48.534;9.062;2023-05-16T13:11:47;17.52;;;9.00;;
76610;SDS011;65503;48.534;9.062;2023-05-16T13:14:14;18.20;;;9.38;;
76610;SDS011;65503;48.534;9.062;2023-05-16T13:16:40;16.05;;;9.07;;
76610;SDS011;65503;48.534;9.062;2023-05-16T13:19:07;13.85;;;8.13;;
76610;SDS011;65503;48.534;9.062;2023-05-16T13:21:34;16.58;;;8.50;;
76610;SDS011;65503;48.534;9.062;2023-05-16T13:24:01;14.23;;;7.88;;
76610;SDS011;65503;48.534;9.062;2023-05-16T13:26:27;16.10;;;8.40;;
76610;SDS011;65503;48.534;9.062;2023-05-16T13:28:54;16.98;;;8.32;;
76610;SDS011;65503;48.534;9.062;2023-05-16T13:31:20;14.95;;;8.07;;
76610;SDS011;65503;48.534;9.062;2023-05-16T13:33:47;13.38;;;6.53;;
76610;SDS011;65503;48.534;9.062;2023-05-16T13:36:14;9.93;;;6.05;;
76610;SDS011;65503;48.534;9.062;2023-05-16T13:38:42;10.82;;;5.70;;
76610;SDS011;65503;48.534;9.062;2023-05-16T13:41:09;10.63;;;6.65;;
76610;SDS011;65503;48.534;9.062;2023-05-16T13:43:35;10.77;;;7.00;;
76610;SDS011;65503;48.534;9.062;2023-05-16T13:46:01;12.25;;;6.55;;
76610;SDS011;65503;48.534;9.062;2023-05-16T13:48:29;11.68;;;6.95;;
76610;SDS011;65503;48.534;9.062;2023-05-16T13:50:55;11.05;;;6.40;;
76610;SDS011;65503;48.534;9.062;2023-05-16T13:53:22;11.05;;;6.20;;
76610;SDS011;65503;48.534;9.062;2023-05-16T13:55:48;11.52;;;6.78;;
76610;SDS011;65503;48.534;9.062;2023-05-16T13:58:15;10.57;;;6.85;;
76610;SDS011;65503;48.534;9.062;2023-05-16T14:00:41;10.75;;;6.43;;
76610;SDS011;65503;48.534;9.062;2023-05-16T14:03:11;10.60;;;6.68;;
76610;SDS011;65503;48.534;9.062;2023-05-16T14:05:38;11.25;;;6.82;;
76610;SDS011;65503;48.534;9.062;2023-05-16T14:08:05;10.93;;;6.43;;
76610;SDS011;65503;48.534;9.062;2023-05-16T14:10:31;9.45;;;5.60;;
76610;SDS011;65503;48.534;9.062;2023-05-16T14:12:58;10.30;;;6.10;;
76610;SDS011;65503;48.534;9.062;2023-05-16T14:15:24;11.70;;;5.85;;
76610;SDS011;65503;48.534;9.062;2023-05-16T14:17:52;14.88;;;7.43;;
76610;SDS011;65503;48.534;9.062;2023-05-16T14:20:18;10.23;;;5.55;;
76610;SDS011;65503;48.534;9.062;2023-05-16T14:22:45;9.48;;;5.40;;
76610;SDS011;65503;48.534;9.062;2023-05-16T14:25:11;10.70;;;5.50;;
76610;SDS011;65503;48.534;9.062;2023-05-16T14:27:38;8.85;;;4.80;;
76610;SDS011;65503;48.534;9.062;2023-05-16T14:30:05;10.85;;;5.55;;
76610;SDS011;65503;48.534;9.062;2023-05-16T14:32:33;6.85;;;4.03;;
76610;SDS011;65503;48.534;9.062;2023-05-16T14:34:59;10.52;;;4.90;;
76610;SDS011;65503;48.534;9.062;2023-05-16T14:37:26;6.80;;;4.05;;
76610;SDS011;65503;48.534;9.062;2023-05-16T14:39:53;6.93;;;3.85;;
76610;SDS011;65503;48.534;9.062;2023-05-16T14:42:20;8.40;;;4.05;;
76610;SDS011;65503;48.534;9.062;2023-05-16T14:44:47;8.75;;;4.10;;
76610;SDS011;65503;48.534;9.062;2023-05-16T14:47:14;7.30;;;3.92;;
76610;SDS011;65503;48.534;9.062;2023-05-16T14:49:41;7.82;;;3.08;;
76610;SDS011;65503;48.534;9.062;2023-05-16T14:52:08;6.28;;;3.25;;
76610;SDS011;65503;48.534;9.062;2023-05-16T14:54:34;7.53;;;3.83;;
76610;SDS011;65503;48.534;9.062;2023-05-16T14:57:01;7.65;;;3.85;;
76610;SDS011;65503;48.534;9.062;2023-05-16T14:59:29;8.02;;;4.15;;